Time;durP1;ratioP1;P1;durP2;ratioP2;P2;SDS_P1;SDS_P2;PMS_P1;PMS_P2;Temp;Humidity;BMP_temperature;BMP_pressure;BME280_temperature;BME280_humidity;BME280_pressure;Samples;Min_cycle;Max_cycle;Signal;HPM_P1;HPM_P2
2022/10/29 00:01:17;;;;;;;16.67;6.25;;;;;;;14.72;90.48;100654.72;4963591;28;20125;-89
2022/10/29 00:03:46;;;;;;;14.65;5.55;;;;;;;14.69;90.45;100652.34;4970372;28;20053;-89
2022/10/29 00:06:13;;;;;;;11.73;5.97;;;;;;;14.66;90.62;100652.63;4972786;28;20038;-90
2022/10/29 00:08:40;;;;;;;9.98;5.38;;;;;;;14.69;90.58;100656.84;4969004;28;20458;-89
2022/10/29 00:11:15;;;;;;;11.20;5.78;;;;;;;14.64;90.90;100654.59;4971477;28;20077;-89
2022/10/29 00:13:42;;;;;;;12.73;5.30;;;;;;;14.68;90.64;100644.44;4954260;28;20042;-90
2022/10/29 00:16:11;;;;;;;12.20;5.68;;;;;;;14.65;90.35;100655.44;4957318;28;20524;-91
2022/10/29 00:18:38;;;;;;;14.63;5.95;;;;;;;14.59;90.44;100643.47;4989142;28;20046;-89
2022/10/29 00:21:09;;;;;;;16.58;7.00;;;;;;;14.53;89.85;100647.56;4958758;28;20161;-89
2022/10/29 00:23:35;;;;;;;20.05;6.70;;;;;;;14.52;90.50;100643.16;4953765;28;20097;-90
2022/10/29 00:26:02;;;;;;;16.55;6.07;;;;;;;14.52;90.38;100648.50;4973041;28;20061;-90
2022/10/29 00:28:29;;;;;;;16.40;6.88;;;;;;;14.54;89.94;100646.56;4952867;28;20093;-91
2022/10/29 00:30:56;;;;;;;16.10;6.15;;;;;;;14.60;90.16;100653.19;4974065;28;20478;-90
2022/10/29 00:33:23;;;;;;;16.50;6.13;;;;;;;14.58;89.80;100648.97;4974213;28;20096;-90
2022/10/29 00:35:57;;;;;;;15.32;5.82;;;;;;;14.52;89.59;100650.34;4972291;28;20410;-90
2022/10/29 00:38:24;;;;;;;14.82;6.25;;;;;;;14.52;90.58;100655.69;4950038;28;20050;-86
2022/10/29 00:40:52;;;;;;;19.02;6.40;;;;;;;14.49;90.60;100658.66;4955793;28;20066;-86
2022/10/29 00:43:22;;;;;;;25.33;7.82;;;;;;;14.50;90.17;100663.88;4948065;28;20145;-86
2022/10/29 00:45:53;;;;;;;15.10;7.22;;;;;;;14.49;90.60;100656.81;4931340;28;20078;-86
2022/10/29 00:48:21;;;;;;;14.65;5.95;;;;;;;14.51;90.60;100667.38;4947309;28;20035;-85
2022/10/29 00:50:48;;;;;;;14.30;5.78;;;;;;;14.56;90.75;100664.31;4941462;28;20043;-86
2022/10/29 00:53:18;;;;;;;11.80;5.63;;;;;;;14.53;90.97;100668.13;4965261;28;20049;-85
2022/10/29 00:55:45;;;;;;;12.88;5.35;;;;;;;14.58;91.14;100667.66;4984925;28;20070;-86
2022/10/29 00:58:12;;;;;;;11.32;5.57;;;;;;;14.58;91.32;100665.00;4954950;28;20119;-86
2022/10/29 01:00:39;;;;;;;12.70;5.85;;;;;;;14.57;91.63;100669.50;4955179;28;20039;-86
2022/10/29 01:03:06;;;;;;;19.20;6.30;;;;;;;14.54;92.20;100669.78;4966835;28;20038;-85
2022/10/29 01:05:33;;;;;;;16.73;6.35;;;;;;;14.63;92.22;100666.28;4958443;28;20050;-86
2022/10/29 01:08:00;;;;;;;13.77;6.82;;;;;;;14.64;92.11;100675.13;4956117;28;20096;-85
2022/10/29 01:10:42;;;;;;;22.00;7.18;;;;;;;14.44;93.12;100671.59;4970778;28;20042;-86
2022/10/29 01:13:29;;;;;;;12.98;6.95;;;;;;;14.46;92.69;100674.97;4934374;28;20054;-86
2022/10/29 01:16:35;;;;;;;18.33;7.07;;;;;;;14.46;92.13;100666.94;4969662;28;20042;-86
2022/10/29 01:19:35;;;;;;;13.43;5.80;;;;;;;14.47;92.31;100664.13;4912176;28;20471;-87
2022/10/29 01:22:28;;;;;;;25.23;7.28;;;;;;;14.52;92.39;100656.53;4963999;28;20058;-86
2022/10/29 01:25:07;;;;;;;16.90;7.15;;;;;;;14.50;92.34;100660.31;4919987;28;20490;-86
2022/10/29 01:27:50;;;;;;;35.10;7.95;;;;;;;14.58;92.19;100654.31;4936367;28;20046;-86
2022/10/29 01:31:05;;;;;;;39.30;8.13;;;;;;;14.38;92.77;100651.63;4986627;28;20066;-86
2022/10/29 01:33:37;;;;;;;23.90;7.10;;;;;;;14.48;92.74;100652.47;4901826;28;20058;-86
2022/10/29 01:36:22;;;;;;;17.80;7.63;;;;;;;14.36;92.06;100645.56;4972340;28;20113;-86
2022/10/29 01:39:04;;;;;;;22.02;7.00;;;;;;;14.37;89.95;100652.59;4949572;28;20545;-86
2022/10/29 01:41:39;;;;;;;14.15;6.15;;;;;;;14.40;89.50;100649.66;4967060;28;20046;-86
2022/10/29 01:44:29;;;;;;;10.70;5.80;;;;;;;14.30;89.63;100654.16;4957019;28;20066;-85
2022/10/29 01:47:03;;;;;;;12.05;5.82;;;;;;;14.35;89.68;100651.91;4932014;28;20063;-86
2022/10/29 01:49:37;;;;;;;9.82;5.20;;;;;;;14.32;89.76;100654.84;4952470;28;20055;-86
2022/10/29 01:52:06;;;;;;;13.25;5.70;;;;;;;14.36;90.18;100644.72;4968823;28;20478;-86
2022/10/29 01:54:33;;;;;;;14.25;5.97;;;;;;;14.30;90.01;100640.81;4984775;28;20384;-86
2022/10/29 01:56:59;;;;;;;14.30;5.45;;;;;;;14.28;90.11;100640.09;4988708;28;20465;-86
2022/10/29 01:59:28;;;;;;;15.43;5.90;;;;;;;14.23;89.23;100637.00;4955319;28;20410;-86
2022/10/29 02:02:23;;;;;;;11.38;6.95;;;;;;;14.06;88.86;100635.84;4973029;28;20096;-86
2022/10/29 02:04:54;;;;;;;11.38;5.32;;;;;;;14.12;89.09;100637.97;4948538;28;20042;-85
2022/10/29 02:07:49;;;;;;;15.25;6.80;;;;;;;13.96;89.35;100637.66;4972875;28;20057;-86
2022/10/29 02:10:27;;;;;;;14.50;5.55;;;;;;;14.01;89.18;100625.56;4952906;28;20049;-86
2022/10/29 02:12:55;;;;;;;15.48;5.93;;;;;;;14.16;89.84;100634.03;4955179;28;20097;-86
2022/10/29 02:15:36;;;;;;;18.80;7.13;;;;;;;13.96;89.53;100633.16;4973031;28;20192;-86
2022/10/29 02:18:06;;;;;;;12.38;6.10;;;;;;;14.09;89.35;100627.53;4953539;28;20049;-86
2022/10/29 02:20:34;;;;;;;17.05;6.70;;;;;;;14.12;89.57;100632.63;4992260;28;20132;-86
2022/10/29 02:23:00;;;;;;;15.27;6.68;;;;;;;14.14;89.67;100630.63;4973873;28;20046;-86
2022/10/29 02:25:27;;;;;;;11.95;5.88;;;;;;;14.11;89.58;100631.75;4974380;28;20042;-86
2022/10/29 02:27:57;;;;;;;12.65;6.53;;;;;;;14.10;89.99;100627.41;4952000;28;20054;-86
2022/10/29 02:30:24;;;;;;;26.90;6.93;;;;;;;14.15;89.99;100620.81;4947518;28;20121;-86
2022/10/29 02:32:51;;;;;;;48.50;8.55;;;;;;;14.14;90.59;100632.47;4952678;28;20071;-86
2022/10/29 02:35:18;;;;;;;10.23;5.60;;;;;;;14.15;90.51;100628.84;4937353;28;20047;-86
2022/10/29 02:37:45;;;;;;;16.80;5.85;;;;;;;14.08;90.61;100621.38;4953966;28;20046;-87
2022/10/29 02:40:12;;;;;;;8.48;5.43;;;;;;;14.05;89.69;100627.00;4970358;28;20055;-86
2022/10/29 02:42:39;;;;;;;10.88;5.90;;;;;;;14.02;89.82;100621.09;4971395;28;20038;-86
2022/10/29 02:45:06;;;;;;;9.60;6.03;;;;;;;14.00;89.92;100613.22;4984466;28;20475;-86
2022/10/29 02:47:33;;;;;;;13.45;5.95;;;;;;;14.03;90.26;100610.25;4968591;28;20517;-88
2022/10/29 02:50:00;;;;;;;11.52;5.53;;;;;;;14.01;89.81;100614.06;4970927;28;20072;-86
2022/10/29 02:52:26;;;;;;;12.48;6.18;;;;;;;14.00;89.81;100618.56;4973519;28;20432;-86
2022/10/29 02:54:53;;;;;;;17.73;6.40;;;;;;;13.97;90.33;100618.84;4969413;28;20050;-86
2022/10/29 02:57:20;;;;;;;11.85;5.97;;;;;;;13.98;90.20;100617.84;4971740;28;20086;-86
2022/10/29 02:59:47;;;;;;;15.90;6.45;;;;;;;13.96;90.60;100613.63;4971684;28;20038;-86
2022/10/29 03:02:13;;;;;;;9.60;5.55;;;;;;;13.97;90.56;100623.31;4938247;28;20050;-86
2022/10/29 03:04:43;;;;;;;13.00;5.75;;;;;;;13.96;90.43;100616.28;4965483;28;20129;-85
2022/10/29 03:07:09;;;;;;;9.20;4.82;;;;;;;13.94;90.30;100621.75;4988663;28;20606;-85
2022/10/29 03:09:36;;;;;;;10.32;5.28;;;;;;;13.96;89.95;100619.81;4975261;28;20066;-86
2022/10/29 03:12:03;;;;;;;7.45;5.10;;;;;;;13.98;89.38;100612.50;4974863;28;20050;-87
2022/10/29 03:14:30;;;;;;;7.05;5.25;;;;;;;13.99;90.39;100616.88;5001599;28;20053;-86
2022/10/29 03:16:57;;;;;;;11.85;5.20;;;;;;;14.00;90.32;100615.88;4956512;28;20058;-86
2022/10/29 03:19:23;;;;;;;9.45;4.95;;;;;;;14.02;90.46;100619.25;4965768;28;20498;-86
2022/10/29 03:21:50;;;;;;;11.27;5.57;;;;;;;14.01;90.47;100617.56;4963883;28;20433;-86
2022/10/29 03:24:17;;;;;;;9.45;5.53;;;;;;;14.00;90.71;100617.72;4970471;28;20038;-87
2022/10/29 03:26:44;;;;;;;15.63;5.35;;;;;;;14.00;90.63;100618.56;4967298;28;20038;-86
2022/10/29 03:29:10;;;;;;;27.60;5.93;;;;;;;13.97;90.58;100612.63;4970261;28;20061;-89
2022/10/29 03:31:37;;;;;;;18.80;6.47;;;;;;;14.00;90.74;100604.38;4949904;28;20053;-89
2022/10/29 03:34:04;;;;;;;29.88;7.43;;;;;;;13.98;91.02;100614.34;4969760;28;20634;-89
2022/10/29 03:36:30;;;;;;;17.85;6.72;;;;;;;13.93;91.52;100611.25;4985605;28;20070;-90
2022/10/29 03:38:57;;;;;;;56.10;8.40;;;;;;;13.92;91.96;100609.53;4974294;28;20053;-89
2022/10/29 03:41:24;;;;;;;9.77;5.68;;;;;;;13.86;92.04;100611.78;4952661;28;20107;-90
2022/10/29 03:43:50;;;;;;;12.63;5.90;;;;;;;13.87;92.24;100608.13;4958479;28;20042;-89
2022/10/29 03:46:17;;;;;;;13.88;6.03;;;;;;;13.85;91.99;100617.25;4954830;28;20116;-88
2022/10/29 03:48:48;;;;;;;17.48;6.30;;;;;;;13.80;91.50;100609.66;4954981;28;20054;-89
2022/10/29 03:51:14;;;;;;;18.48;6.22;;;;;;;13.87;91.22;100609.97;4983216;28;20525;-89
2022/10/29 03:53:41;;;;;;;11.27;5.50;;;;;;;13.90;90.75;100604.34;4961222;28;20100;-89
2022/10/29 03:56:08;;;;;;;6.78;4.72;;;;;;;13.88;90.33;100609.81;4990956;28;20046;-90
2022/10/29 03:58:35;;;;;;;9.48;5.60;;;;;;;13.82;89.91;100602.38;4968470;28;20838;-90
2022/10/29 04:01:04;;;;;;;9.55;4.60;;;;;;;13.76;89.66;100602.06;4971798;28;20074;-89
2022/10/29 04:03:32;;;;;;;18.58;5.28;;;;;;;13.82;89.38;100613.03;4953113;28;20422;-89
2022/10/29 04:06:01;;;;;;;12.43;4.97;;;;;;;13.80;89.36;100611.50;4953966;28;20052;-89
2022/10/29 04:08:28;;;;;;;19.63;5.65;;;;;;;13.78;89.30;100600.94;4959085;28;20049;-89
2022/10/29 04:10:55;;;;;;;13.80;4.95;;;;;;;13.74;89.32;100606.69;4944617;28;20500;-89
2022/10/29 04:13:21;;;;;;;9.35;4.50;;;;;;;13.74;89.30;100612.91;4954012;28;20326;-87
2022/10/29 04:15:52;;;;;;;16.80;4.95;;;;;;;13.65;89.10;100613.72;4960647;28;20517;-90
2022/10/29 04:18:19;;;;;;;14.85;4.50;;;;;;;13.74;89.20;100614.69;4950025;28;20046;-89
2022/10/29 04:20:46;;;;;;;11.48;4.70;;;;;;;13.71;88.74;100617.66;4950477;28;20120;-89
2022/10/29 04:23:32;;;;;;;10.52;4.57;;;;;;;13.77;88.51;100625.13;4921027;28;20054;-89
2022/10/29 04:26:19;;;;;;;9.82;5.25;;;;;;;13.70;88.63;100627.47;4935308;28;20045;-90
2022/10/29 04:29:06;;;;;;;10.40;4.65;;;;;;;13.66;88.39;100637.59;4938177;28;20038;-88
2022/10/29 04:31:32;;;;;;;11.18;5.47;;;;;;;13.63;88.49;100642.34;4955483;28;20403;-89
2022/10/29 04:33:59;;;;;;;8.73;4.95;;;;;;;13.61;88.53;100638.97;4962731;28;20047;-89
2022/10/29 04:36:26;;;;;;;8.63;5.32;;;;;;;13.58;88.86;100637.41;4969604;28;20092;-89
2022/10/29 04:38:53;;;;;;;10.52;5.03;;;;;;;13.60;88.41;100631.94;4970746;28;20070;-90
2022/10/29 04:41:19;;;;;;;11.23;5.45;;;;;;;13.58;88.68;100636.56;4973308;28;20120;-89
2022/10/29 04:43:46;;;;;;;8.07;5.82;;;;;;;13.56;88.71;100633.19;4980730;28;20042;-89
2022/10/29 04:46:13;;;;;;;10.10;5.47;;;;;;;13.52;88.91;100637.97;4984563;28;20204;-89
2022/10/29 04:48:40;;;;;;;10.02;5.38;;;;;;;13.51;88.87;100638.94;4954821;28;20109;-89
2022/10/29 04:51:13;;;;;;;7.45;4.55;;;;;;;13.48;88.41;100635.69;4935988;28;20064;-89
2022/10/29 04:53:39;;;;;;;7.57;4.47;;;;;;;13.45;88.15;100634.97;4945937;28;20049;-89
2022/10/29 04:56:06;;;;;;;13.15;5.10;;;;;;;13.58;87.44;100632.06;4940081;28;20096;-89
2022/10/29 04:58:33;;;;;;;7.20;4.75;;;;;;;13.53;88.03;100636.97;4949319;28;20101;-89
2022/10/29 05:01:01;;;;;;;7.15;4.68;;;;;;;13.48;87.54;100635.69;4924342;28;20047;-89
2022/10/29 05:03:28;;;;;;;8.07;4.50;;;;;;;13.45;87.51;100634.97;4953850;28;20054;-90
2022/10/29 05:05:55;;;;;;;11.15;4.75;;;;;;;13.44;87.57;100630.63;4944370;28;20048;-88
2022/10/29 05:08:22;;;;;;;15.30;5.50;;;;;;;13.44;87.70;100629.78;4953300;28;20043;-89
2022/10/29 05:10:48;;;;;;;12.00;5.57;;;;;;;13.41;87.84;100628.25;4918577;28;20110;-88
2022/10/29 05:13:15;;;;;;;11.65;4.88;;;;;;;13.39;87.67;100626.69;4950237;28;20049;-88
2022/10/29 05:15:48;;;;;;;10.50;5.65;;;;;;;13.29;87.46;100626.63;4977753;28;20475;-87
2022/10/29 05:18:19;;;;;;;13.10;4.68;;;;;;;13.38;87.78;100625.84;4930831;28;20048;-87
2022/10/29 05:20:46;;;;;;;7.32;4.53;;;;;;;13.36;88.23;100629.63;4966569;28;20069;-88
2022/10/29 05:23:12;;;;;;;12.88;5.10;;;;;;;13.37;88.14;100618.81;4954721;28;20050;-88
2022/10/29 05:25:40;;;;;;;14.98;5.53;;;;;;;13.43;87.59;100618.28;4958095;28;20195;-87
2022/10/29 05:28:13;;;;;;;16.50;5.43;;;;;;;13.41;87.74;100617.56;4976420;28;20084;-87
2022/10/29 05:30:40;;;;;;;10.70;6.28;;;;;;;13.44;87.48;100622.63;4940903;28;20047;-87
2022/10/29 05:33:08;;;;;;;13.05;5.50;;;;;;;13.41;87.98;100614.91;4986357;28;20055;-88
2022/10/29 05:35:35;;;;;;;13.88;5.55;;;;;;;13.44;87.78;100613.78;4971987;28;20043;-88
2022/10/29 05:38:02;;;;;;;12.05;5.13;;;;;;;13.39;88.11;100608.84;4970871;28;20100;-88
2022/10/29 05:40:29;;;;;;;14.18;4.82;;;;;;;13.41;88.18;100611.41;4958811;28;20039;-88
2022/10/29 05:42:56;;;;;;;9.10;4.68;;;;;;;13.40;88.10;100609.69;4958987;28;20066;-88
2022/10/29 05:45:24;;;;;;;10.48;5.40;;;;;;;13.39;88.20;100613.34;4943678;28;20055;-88
2022/10/29 05:47:58;;;;;;;14.02;5.00;;;;;;;13.34;87.35;100618.25;4944460;28;20050;-88
2022/10/29 05:50:26;;;;;;;12.13;5.32;;;;;;;13.42;87.81;100615.75;4951969;28;20045;-88
2022/10/29 05:52:55;;;;;;;15.40;5.30;;;;;;;13.49;87.31;100614.22;4957252;28;20046;-89
2022/10/29 05:55:22;;;;;;;9.43;4.80;;;;;;;13.41;87.66;100616.72;4964667;28;20044;-88
2022/10/29 05:57:48;;;;;;;16.48;5.72;;;;;;;13.48;87.63;100620.53;4968758;28;20398;-88
2022/10/29 06:00:15;;;;;;;11.00;5.88;;;;;;;13.44;87.83;100616.47;4992772;28;20054;-88
2022/10/29 06:02:43;;;;;;;14.77;5.38;;;;;;;13.44;87.81;100619.13;4945886;28;20047;-88
2022/10/29 06:05:10;;;;;;;18.67;5.20;;;;;;;13.39;88.03;100616.03;4973100;28;20104;-88
2022/10/29 06:07:36;;;;;;;12.32;5.18;;;;;;;13.38;88.05;100617.84;4951794;28;20507;-88
2022/10/29 06:10:04;;;;;;;11.50;5.45;;;;;;;13.36;87.99;100614.47;4970965;28;20108;-89
2022/10/29 06:12:31;;;;;;;7.75;5.03;;;;;;;13.36;87.77;100617.13;4970674;28;20042;-88
2022/10/29 06:15:00;;;;;;;12.43;4.60;;;;;;;13.32;87.87;100618.38;4971265;28;20053;-89
2022/10/29 06:17:27;;;;;;;12.77;5.22;;;;;;;13.35;87.87;100625.25;4970978;28;20509;-88
2022/10/29 06:19:54;;;;;;;18.02;4.47;;;;;;;13.34;87.68;100619.09;4934788;28;20054;-87
2022/10/29 06:22:20;;;;;;;12.25;4.95;;;;;;;13.32;88.09;100622.88;4937225;28;20094;-88
2022/10/29 06:24:47;;;;;;;10.43;4.95;;;;;;;13.35;87.61;100626.09;4940063;28;20051;-89
2022/10/29 06:27:14;;;;;;;8.70;4.40;;;;;;;13.32;88.11;100617.53;4948412;28;20105;-89
2022/10/29 06:29:40;;;;;;;9.82;4.68;;;;;;;13.32;88.21;100628.19;4967150;28;20409;-88
2022/10/29 06:32:07;;;;;;;10.85;4.75;;;;;;;13.35;88.19;100625.25;4973855;28;20445;-88
2022/10/29 06:34:34;;;;;;;14.38;5.82;;;;;;;13.33;88.36;100622.75;4968917;28;20456;-87
2022/10/29 06:37:00;;;;;;;9.85;5.20;;;;;;;13.32;88.34;100622.88;4956425;28;20437;-88
2022/10/29 06:39:27;;;;;;;8.50;5.80;;;;;;;13.34;88.25;100632.41;4971883;28;20038;-88
2022/10/29 06:41:54;;;;;;;12.77;5.15;;;;;;;13.40;87.72;100625.69;4984595;28;20050;-87
2022/10/29 06:44:21;;;;;;;11.70;5.22;;;;;;;13.39;87.89;100624.03;4983304;28;20042;-88
2022/10/29 06:46:47;;;;;;;8.80;4.82;;;;;;;13.39;88.26;100624.84;4959382;28;20042;-88
2022/10/29 06:49:14;;;;;;;11.15;5.25;;;;;;;13.40;88.34;100631.88;4954696;28;20065;-88
2022/10/29 06:51:41;;;;;;;11.60;5.68;;;;;;;13.40;88.27;100628.38;4974277;28;20510;-88
2022/10/29 06:54:08;;;;;;;12.20;5.45;;;;;;;13.37;88.56;100637.47;4969250;28;20046;-88
2022/10/29 06:56:34;;;;;;;13.40;6.07;;;;;;;13.36;88.92;100629.63;4952236;28;20053;-89
2022/10/29 06:59:01;;;;;;;12.15;5.28;;;;;;;13.35;89.02;100623.44;4949714;28;20047;-88
2022/10/29 07:01:31;;;;;;;9.38;5.55;;;;;;;13.38;88.83;100625.84;4953405;28;20394;-89
2022/10/29 07:03:59;;;;;;;11.48;5.03;;;;;;;13.40;88.59;100631.03;4984404;28;20052;-89
2022/10/29 07:06:26;;;;;;;12.43;4.70;;;;;;;13.40;88.85;100621.19;4954944;28;20042;-89
2022/10/29 07:08:53;;;;;;;9.82;5.10;;;;;;;13.42;88.53;100623.75;4969899;28;20046;-90
2022/10/29 07:11:19;;;;;;;10.05;5.63;;;;;;;13.46;88.46;100627.84;4957856;28;20554;-89
2022/10/29 07:13:46;;;;;;;13.98;5.63;;;;;;;13.50;88.37;100631.91;4970655;28;20041;-89
2022/10/29 07:16:13;;;;;;;11.93;5.45;;;;;;;13.53;88.37;100628.13;4975704;28;20050;-89
2022/10/29 07:18:40;;;;;;;9.90;5.32;;;;;;;13.54;88.13;100637.84;4947257;28;20096;-90
2022/10/29 07:21:06;;;;;;;11.52;5.35;;;;;;;13.55;88.22;100635.03;4923080;28;20081;-89
2022/10/29 07:23:33;;;;;;;13.75;6.03;;;;;;;13.58;88.34;100640.06;4937110;28;20093;-90
2022/10/29 07:26:00;;;;;;;11.80;6.03;;;;;;;13.62;88.32;100636.16;4922853;28;20086;-90
2022/10/29 07:28:26;;;;;;;13.05;6.47;;;;;;;13.64;88.36;100644.91;4936939;28;20055;-89
2022/10/29 07:30:58;;;;;;;10.02;6.35;;;;;;;13.62;88.77;100640.66;4951512;28;20491;-90
2022/10/29 07:33:27;;;;;;;11.07;6.25;;;;;;;13.66;88.77;100628.72;4962771;28;20047;-89
2022/10/29 07:35:56;;;;;;;12.30;5.72;;;;;;;13.72;88.79;100630.88;4972033;28;20561;-89
2022/10/29 07:38:24;;;;;;;13.13;6.30;;;;;;;13.74;88.44;100636.91;4968394;28;20062;-90
2022/10/29 07:40:51;;;;;;;15.55;6.13;;;;;;;13.73;89.12;100635.22;4947874;28;20094;-89
2022/10/29 07:43:19;;;;;;;12.50;6.47;;;;;;;13.80;88.67;100648.88;4960929;28;20054;-88
2022/10/29 07:45:48;;;;;;;13.32;6.15;;;;;;;13.84;88.40;100644.94;4940800;28;20038;-89
2022/10/29 07:48:16;;;;;;;15.18;6.68;;;;;;;13.92;88.63;100644.25;4981290;28;20042;-82
2022/10/29 07:50:43;;;;;;;14.20;6.82;;;;;;;14.00;88.94;100650.59;4980587;28;20051;-82
2022/10/29 07:53:10;;;;;;;15.18;6.20;;;;;;;14.04;89.15;100646.69;4966409;28;20466;-82
2022/10/29 07:55:37;;;;;;;12.50;6.22;;;;;;;14.02;89.12;100651.31;4986206;28;20042;-82
2022/10/29 07:58:05;;;;;;;16.77;7.38;;;;;;;14.08;88.81;100644.56;5001375;28;20038;-82
2022/10/29 08:00:34;;;;;;;12.40;6.50;;;;;;;14.13;88.77;100645.00;4951343;28;20066;-81
2022/10/29 08:03:01;;;;;;;17.33;6.30;;;;;;;14.18;88.62;100645.41;4966956;28;20050;-82
2022/10/29 08:05:28;;;;;;;14.55;5.90;;;;;;;14.21;88.59;100647.81;4985339;28;20054;-81
2022/10/29 08:07:55;;;;;;;17.13;6.03;;;;;;;14.26;89.07;100650.91;4967606;28;20050;-82
2022/10/29 08:10:23;;;;;;;12.85;6.28;;;;;;;14.30;89.47;100640.81;4987890;28;20104;-82
2022/10/29 08:12:55;;;;;;;18.77;6.75;;;;;;;14.31;89.36;100651.31;4986568;28;20049;-82
2022/10/29 08:15:23;;;;;;;12.30;5.77;;;;;;;14.32;89.21;100642.34;4984050;28;20046;-82
2022/10/29 08:17:53;;;;;;;15.52;6.80;;;;;;;14.34;89.24;100648.38;4967255;28;20053;-83
2022/10/29 08:20:21;;;;;;;13.93;6.07;;;;;;;14.40;89.18;100641.66;4983890;28;20510;-83
2022/10/29 08:22:48;;;;;;;13.13;5.90;;;;;;;14.41;89.61;100645.16;4987951;28;20054;-83
2022/10/29 08:25:15;;;;;;;10.65;5.95;;;;;;;14.39;89.68;100642.59;4971817;28;20054;-83
2022/10/29 08:27:42;;;;;;;13.80;5.72;;;;;;;14.41;89.60;100643.31;4972307;28;20108;-83
2022/10/29 08:30:11;;;;;;;10.82;5.72;;;;;;;14.44;89.58;100647.53;4985809;28;20048;-82
2022/10/29 08:32:47;;;;;;;12.77;6.85;;;;;;;14.41;89.91;100642.47;4984831;28;20086;-82
2022/10/29 08:35:14;;;;;;;18.63;6.95;;;;;;;14.50;89.67;100649.63;4981435;28;20046;-82
2022/10/29 08:37:44;;;;;;;18.45;7.55;;;;;;;14.50;89.73;100637.13;4970670;28;20113;-82
2022/10/29 08:40:30;;;;;;;13.93;7.00;;;;;;;14.52;89.79;100640.50;4988754;28;20058;-82
2022/10/29 08:43:15;;;;;;;14.63;7.43;;;;;;;14.56;90.02;100645.59;4978732;28;20105;-83
2022/10/29 08:45:47;;;;;;;18.13;6.65;;;;;;;14.55;89.97;100644.75;4962663;28;20051;-82
2022/10/29 08:48:32;;;;;;;13.40;6.43;;;;;;;14.59;90.03;100634.63;4967227;28;20054;-82
2022/10/29 08:51:08;;;;;;;14.45;6.25;;;;;;;14.60;90.17;100645.16;4974932;28;20051;-82
2022/10/29 08:53:49;;;;;;;18.98;6.85;;;;;;;14.58;90.78;100638.28;4984410;28;20050;-82
2022/10/29 08:56:37;;;;;;;17.45;7.63;;;;;;;14.68;90.67;100641.78;4922791;28;20458;-82
2022/10/29 08:59:16;;;;;;;19.38;7.07;;;;;;;14.71;90.50;100650.38;4964895;28;20042;-83
2022/10/29 09:01:43;;;;;;;24.55;8.43;;;;;;;14.74;90.84;100644.72;4935736;28;20047;-82
2022/10/29 09:04:25;;;;;;;18.13;7.38;;;;;;;14.74;91.05;100647.41;4936305;28;20487;-82
2022/10/29 09:06:56;;;;;;;24.02;6.85;;;;;;;14.77;91.06;100644.44;4966786;28;20129;-82
2022/10/29 09:09:44;;;;;;;18.25;7.82;;;;;;;14.76;91.24;100639.25;4947316;28;20042;-83
2022/10/29 09:12:37;;;;;;;20.45;7.70;;;;;;;14.79;91.73;100646.16;4974063;28;20051;-82
2022/10/29 09:15:25;;;;;;;20.25;8.68;;;;;;;14.85;91.37;100642.88;4953936;28;20046;-82
2022/10/29 09:18:24;;;;;;;18.63;7.10;;;;;;;14.85;91.62;100637.53;4968415;28;20065;-82
2022/10/29 09:21:12;;;;;;;14.90;6.90;;;;;;;14.93;91.39;100641.19;4935416;28;22708;-81
2022/10/29 09:23:59;;;;;;;14.18;6.70;;;;;;;14.87;92.49;100638.25;4941814;28;20434;-81
2022/10/29 09:26:26;;;;;;;15.38;8.05;;;;;;;14.96;91.87;100640.06;4934117;28;20086;-82
2022/10/29 09:29:14;;;;;;;19.77;7.95;;;;;;;14.88;92.35;100634.56;4970066;28;20043;-82
2022/10/29 09:31:43;;;;;;;13.82;6.57;;;;;;;14.96;91.55;100638.22;4991562;28;20153;-82
2022/10/29 09:34:16;;;;;;;17.80;7.30;;;;;;;14.99;91.83;100634.41;4990362;28;20105;-82
2022/10/29 09:36:45;;;;;;;18.55;7.07;;;;;;;15.01;91.69;100640.47;4976984;28;20625;-82
2022/10/29 09:39:15;;;;;;;29.20;7.70;;;;;;;15.04;91.88;100636.66;4968365;28;20058;-82
2022/10/29 09:41:45;;;;;;;;;;;;;;;14.84;93.49;100630.50;4964149;28;20257;-83
2022/10/29 09:44:23;;;;;;;14.43;6.60;;;;;;;14.96;92.83;100638.22;4953982;28;19953;-82
2022/10/29 09:47:10;;;;;;;15.20;7.80;;;;;;;15.06;92.54;100632.00;4936992;28;20039;-83
2022/10/29 09:49:56;;;;;;;19.45;8.23;;;;;;;15.03;93.44;100627.78;4929214;28;20046;-82
2022/10/29 09:52:26;;;;;;;17.25;7.65;;;;;;;15.12;92.88;100626.06;4937651;28;20097;-83
2022/10/29 09:54:53;;;;;;;16.20;7.50;;;;;;;15.16;92.85;100622.97;4968936;28;20625;-83
2022/10/29 09:57:28;;;;;;;13.95;7.72;;;;;;;15.17;92.48;100621.13;4969823;28;20062;-82
2022/10/29 09:59:55;;;;;;;21.23;7.85;;;;;;;15.25;93.02;100623.91;4970804;28;20046;-83
2022/10/29 10:02:22;;;;;;;17.02;8.40;;;;;;;15.29;92.50;100625.31;4987279;28;20506;-82
2022/10/29 10:04:50;;;;;;;20.20;8.20;;;;;;;15.33;92.78;100623.19;4973558;28;21005;-83
2022/10/29 10:07:19;;;;;;;16.90;7.57;;;;;;;15.37;92.58;100620.06;4949764;28;20074;-83
2022/10/29 10:09:58;;;;;;;12.20;6.88;;;;;;;15.36;92.60;100621.03;4980977;28;20073;-82
2022/10/29 10:12:37;;;;;;;21.83;8.02;;;;;;;15.46;93.16;100610.28;4957838;28;20054;-83
2022/10/29 10:15:25;;;;;;;13.93;6.93;;;;;;;15.41;93.09;100613.41;4974884;28;20405;-83
2022/10/29 10:17:58;;;;;;;15.50;7.43;;;;;;;15.50;93.66;100614.38;4957925;28;20049;-83
2022/10/29 10:20:58;;;;;;;19.40;6.75;;;;;;;15.47;94.48;100608.44;4991717;28;20047;-83
2022/10/29 10:23:28;;;;;;;17.05;7.80;;;;;;;15.59;94.26;100601.91;4968292;28;20050;-83
2022/10/29 10:25:58;;;;;;;17.08;8.50;;;;;;;15.59;94.16;100597.41;4961825;28;20066;-83
2022/10/29 10:28:34;;;;;;;15.65;7.80;;;;;;;15.66;94.42;100596.81;4961636;28;20055;-83
2022/10/29 10:31:10;;;;;;;11.75;6.93;;;;;;;15.64;94.13;100589.75;4956816;28;20235;-83
2022/10/29 10:33:53;;;;;;;14.13;7.30;;;;;;;15.69;94.03;100594.69;4980694;28;20129;-83
2022/10/29 10:36:23;;;;;;;15.85;7.63;;;;;;;15.78;94.03;100576.91;4947465;28;20455;-83
2022/10/29 10:38:55;;;;;;;14.48;7.95;;;;;;;15.81;94.26;100580.09;4984961;28;20058;-83
2022/10/29 10:41:27;;;;;;;16.73;7.47;;;;;;;15.86;94.05;100573.47;4965053;28;20490;-83
2022/10/29 10:43:59;;;;;;;29.10;8.45;;;;;;;15.90;93.88;100558.75;5000307;28;20199;-83
2022/10/29 10:46:30;;;;;;;19.05;7.55;;;;;;;15.93;93.67;100563.84;4970611;28;20080;-83
2022/10/29 10:49:04;;;;;;;18.58;7.50;;;;;;;15.97;93.46;100562.50;4971049;28;20058;-83
2022/10/29 10:51:35;;;;;;;15.98;7.30;;;;;;;16.01;93.82;100553.19;5001337;28;20154;-83
2022/10/29 10:54:09;;;;;;;13.20;7.55;;;;;;;16.04;93.35;100545.69;4968946;28;20077;-83
2022/10/29 10:56:51;;;;;;;17.30;8.07;;;;;;;16.02;93.67;100536.13;4947280;28;21007;-83
2022/10/29 10:59:18;;;;;;;21.23;8.10;;;;;;;16.14;93.64;100534.06;4966345;28;20054;-83
2022/10/29 11:01:47;;;;;;;21.85;7.10;;;;;;;16.18;92.93;100532.72;4958186;28;20097;-83
2022/10/29 11:04:20;;;;;;;13.10;7.10;;;;;;;16.19;92.29;100529.91;4968940;28;20042;-83
2022/10/29 11:06:52;;;;;;;15.25;6.72;;;;;;;16.24;91.36;100532.97;4972998;28;20438;-83
2022/10/29 11:09:48;;;;;;;18.83;6.47;;;;;;;16.24;90.62;100519.56;4983886;28;20747;-83
2022/10/29 11:12:32;;;;;;;18.35;5.88;;;;;;;16.28;89.96;100512.03;4957653;28;20053;-83
2022/10/29 11:14:59;;;;;;;;;;;;;;;16.21;90.61;100516.38;4951436;28;20042;-83
2022/10/29 11:17:29;;;;;;;17.08;5.45;;;;;;;16.39;90.70;100508.28;4958368;28;19922;-83
2022/10/29 11:19:58;;;;;;;15.90;6.72;;;;;;;16.43;90.74;100509.63;4970309;28;20242;-83
2022/10/29 11:22:30;;;;;;;19.17;6.07;;;;;;;16.46;90.04;100502.13;4956819;28;20070;-84
2022/10/29 11:25:09;;;;;;;16.13;6.38;;;;;;;16.49;90.23;100509.84;4964965;28;20062;-83
2022/10/29 11:27:54;;;;;;;15.18;6.95;;;;;;;16.49;89.37;100500.97;4994091;28;20046;-83
2022/10/29 11:30:21;;;;;;;15.10;6.35;;;;;;;16.61;89.70;100506.91;4965585;28;20478;-84
2022/10/29 11:33:05;;;;;;;12.70;5.80;;;;;;;16.63;89.53;100510.28;4985225;28;20073;-84
2022/10/29 11:36:11;;;;;;;18.52;6.85;;;;;;;16.61;91.07;100504.22;4968178;28;20046;-84
2022/10/29 11:38:39;;;;;;;15.35;6.00;;;;;;;16.73;90.75;100496.75;4963533;28;20599;-84